チェンナイ の空港の天気 - METARとTAF

チェンナイ国際空港 ( VOMM / MAA ) - インド チェンナイ
飛行場実況気象(Metar)
観測時間07/17 14:30 IST (07/17 09:00 UTC)
風向・風速西南西 5m/s 瞬間風速10m/s
視程7000m
天気現象
少しの雲 雲底高度 610m
全天の4割程度の雲 雲底高度 760m
気温37℃
湿度42%
気圧1001hPa
METARVOMM 170900Z 25010G20KT 7000 FEW020 SCT025 37/22 Q1001 NOSIG
過去の天気等 Google飛行場航空写真 Wunderground天気予報

過去48時間のMETAR

飛行場予報(TAF)
発表時間: 7/17 10:30 IST (7/17 05:00 UTC)
予報対象時間: 17日11時 IST ~ 18日17時 IST
風向・風速西南西 8m/s 瞬間風速 13m/s
視程6000m
少しの雲 雲底高度 610m
全天の8割程度の雲 雲底高度 3050m
17日17時 IST ~ 17日18時 IST に徐々に
風向・風速西南西 5m/s
17日17時 IST ~ 17日20時 IST に一時的に
全天の4割程度の雲 雲底高度 610m
少しの積乱雲 雲底高度 760m
全天の8割程度の雲 雲底高度 3050m
18日8時 IST ~ 18日10時 IST に徐々に
風向・風速西南西 5m/s 瞬間風速 10m/s
TAF VOMM 170500Z 1706/1812 25015G25KT 6000 FEW020 BKN100
BECMG 1712/1713 25010KT
TEMPO 1712/1715 SCT020 FEW025CB BKN100
BECMG 1803/1805 25010G20KT